»·PEaware :: DCM424 KSLC-KUAO

DCM424 :: KSLC-KUAO

FLIGHT INFORMATION

Flight Status: Arrived
Operator: Unknown
More flights by this operator :: More flights under this callsign
Pilot: Ben H. (9170)
Aircraft: CESSNA 550 CITATION 2/S2/BRAVO
(C550)
More flights by this aircraft type
Origin: KSLC Salt Lake City Intl
United States
Destination: KUAO Aurora State
United States
More flights between these airports :: More routes between these airports
Route: CGULL1 TWF J15 IMB V500 HARZL
File this flight plan on PilotEdge
Remarks:
Altitude:
(Current/Filed)
24,000ft
Speed:
(Current/Filed)
350kts
Departed: 06-Dec-18 09:34 PM
Arrived: 06-Dec-18 11:15 PM
Distance/Time
Traveled:
543nm/1:41
Distance/Time
To Go:
Arrived

Flight Plot

Page will automatically refresh every two minutes.

Flight plan parsing failed; only flown route is shown


Map Options




Map Legend


Flown Route
Filed Route
Departure Airport
Arrival Airport
Navaid (VOR, NDB)
Fix

Horizontal Profiles

Position Reports

Time Latitude Longitude Heading Altitude Ground
Speed
06-Dec-18 21:09 40.778606 -111.958811 180 4232ft 0kts
06-Dec-18 21:10 40.778606 -111.958811 180 4232ft 0kts
06-Dec-18 21:11 40.778606 -111.958811 180 4232ft 0kts
06-Dec-18 21:12 40.778606 -111.958811 180 4232ft 0kts
06-Dec-18 21:13 40.778606 -111.958811 180 4232ft 0kts
06-Dec-18 21:14 40.778606 -111.958811 180 4232ft 0kts
06-Dec-18 21:15 40.778606 -111.958811 180 4232ft 0kts
06-Dec-18 21:16 40.778606 -111.958811 180 4232ft 0kts
06-Dec-18 21:17 40.778606 -111.958811 180 4232ft 0kts
06-Dec-18 21:18 40.778606 -111.958811 180 4232ft 0kts
06-Dec-18 21:19 40.778606 -111.958811 180 4232ft 0kts
06-Dec-18 21:20 40.778606 -111.958811 180 4232ft 0kts
06-Dec-18 21:21 40.778349 -111.958840 240 4232ft 0kts
06-Dec-18 21:22 40.778349 -111.958840 240 4232ft 0kts
06-Dec-18 21:23 40.778871 -111.959815 300 4232ft 8kts
06-Dec-18 21:24 40.782019 -111.960021 359 4232ft 14kts
06-Dec-18 21:25 40.786234 -111.960021 357 4232ft 17kts
06-Dec-18 21:26 40.791055 -111.960106 12 4232ft 6kts
06-Dec-18 21:27 40.797301 -111.960041 0 4232ft 21kts
06-Dec-18 21:28 40.798063 -111.960808 268 4232ft 0kts
06-Dec-18 21:29 40.798063 -111.960807 268 4232ft 0kts
06-Dec-18 21:30 40.798063 -111.960808 268 4232ft 0kts
06-Dec-18 21:31 40.798063 -111.960808 268 4232ft 0kts
06-Dec-18 21:32 40.798062 -111.960847 268 4232ft 1kts
06-Dec-18 21:33 40.787205 -111.962061 181 4496ft 127kts
06-Dec-18 21:34 40.752424 -111.995179 278 6534ft 255kts
06-Dec-18 21:35 40.792288 -112.063487 307 10097ft 240kts
06-Dec-18 21:36 40.837916 -112.138805 310 10211ft 274kts
06-Dec-18 21:37 40.888910 -112.213063 311 10197ft 272kts
06-Dec-18 21:38 40.946304 -112.271617 320 12025ft 246kts
06-Dec-18 21:39 40.998217 -112.326014 318 14860ft 253kts
06-Dec-18 21:40 41.062432 -112.394890 319 14998ft 332kts
06-Dec-18 21:41 41.132995 -112.470587 320 17194ft 292kts
06-Dec-18 21:42 41.192423 -112.533830 321 19206ft 301kts
06-Dec-18 21:43 41.259009 -112.600983 321 20892ft 304kts
06-Dec-18 21:44 41.314835 -112.673587 311 22257ft 311kts
06-Dec-18 21:45 41.372234 -112.757629 311 23816ft 317kts
06-Dec-18 21:46 41.433283 -112.848578 310 24276ft 347kts
06-Dec-18 21:47 41.497068 -112.946716 310 24275ft 357kts
06-Dec-18 21:48 41.559612 -113.042842 310 24274ft 362kts
06-Dec-18 21:49 41.626036 -113.145146 310 24263ft 365kts
06-Dec-18 21:50 41.692372 -113.247657 310 24251ft 365kts
06-Dec-18 21:51 41.753729 -113.342792 310 24246ft 366kts
06-Dec-18 21:52 41.818106 -113.442939 310 24245ft 367kts
06-Dec-18 21:53 41.884911 -113.547225 310 24245ft 372kts
06-Dec-18 21:54 41.951787 -113.651984 309 24245ft 373kts
06-Dec-18 21:55 42.018641 -113.757067 309 24247ft 373kts
06-Dec-18 21:56 42.085581 -113.862669 309 24246ft 373kts
06-Dec-18 21:57 42.151809 -113.967526 309 24247ft 373kts
06-Dec-18 21:58 42.218948 -114.073847 309 24249ft 373kts
06-Dec-18 21:59 42.286270 -114.180550 309 24253ft 373kts
06-Dec-18 22:00 42.353339 -114.287295 309 24255ft 373kts
06-Dec-18 22:01 42.420166 -114.394054 309 24255ft 373kts
06-Dec-18 22:02 42.486064 -114.499677 309 24254ft 374kts
06-Dec-18 22:03 42.549347 -114.597436 310 24254ft 374kts
06-Dec-18 22:04 42.616714 -114.701495 309 24259ft 374kts
06-Dec-18 22:05 42.685095 -114.807812 309 24263ft 374kts
06-Dec-18 22:06 42.753270 -114.914241 309 24265ft 374kts
06-Dec-18 22:07 42.821328 -115.020881 309 24265ft 374kts
06-Dec-18 22:08 42.889538 -115.128147 309 24265ft 374kts
06-Dec-18 22:09 42.957519 -115.235449 308 24265ft 374kts
06-Dec-18 22:10 43.025003 -115.342362 308 24265ft 374kts
06-Dec-18 22:11 43.092647 -115.449929 308 24265ft 375kts
06-Dec-18 22:12 43.156543 -115.551887 308 24262ft 375kts
06-Dec-18 22:13 43.223948 -115.659839 307 24264ft 375kts
06-Dec-18 22:14 43.291237 -115.768022 307 24265ft 375kts
06-Dec-18 22:15 43.358664 -115.876826 307 24265ft 375kts
06-Dec-18 22:16 43.426162 -115.986151 307 24292ft 375kts
06-Dec-18 22:17 43.493025 -116.094862 307 24315ft 375kts
06-Dec-18 22:18 43.556741 -116.208009 297 24321ft 372kts
06-Dec-18 22:19 43.600715 -116.335710 292 24331ft 370kts
06-Dec-18 22:20 43.642481 -116.463159 292 24338ft 370kts
06-Dec-18 22:21 43.685037 -116.592888 292 24343ft 370kts
06-Dec-18 22:22 43.726458 -116.719581 291 24350ft 370kts
06-Dec-18 22:23 43.768828 -116.849791 291 24360ft 371kts
06-Dec-18 22:24 43.810895 -116.979717 292 24371ft 370kts
06-Dec-18 22:25 43.852627 -117.109244 292 24375ft 369kts
06-Dec-18 22:26 43.894136 -117.238711 292 24374ft 368kts
06-Dec-18 22:27 43.935576 -117.368605 292 24374ft 368kts
06-Dec-18 22:28 43.976801 -117.498474 292 24373ft 368kts
06-Dec-18 22:29 44.017715 -117.628003 292 24372ft 368kts
06-Dec-18 22:30 44.058362 -117.757311 292 24355ft 369kts
06-Dec-18 22:31 44.099420 -117.888591 292 24306ft 369kts
06-Dec-18 22:32 44.138474 -118.014099 292 24271ft 369kts
06-Dec-18 22:33 44.178675 -118.143925 291 24254ft 369kts
06-Dec-18 22:34 44.219191 -118.275431 291 24223ft 369kts
06-Dec-18 22:35 44.259524 -118.407013 291 24208ft 369kts
06-Dec-18 22:36 44.299532 -118.538213 291 24208ft 368kts
06-Dec-18 22:37 44.338259 -118.665853 291 24210ft 368kts
06-Dec-18 22:38 44.377959 -118.797381 291 24211ft 369kts
06-Dec-18 22:39 44.417453 -118.928889 291 24210ft 367kts
06-Dec-18 22:40 44.456679 -119.060183 291 24210ft 365kts
06-Dec-18 22:41 44.495421 -119.190537 291 24209ft 363kts
06-Dec-18 22:42 44.533954 -119.320864 291 24209ft 363kts
06-Dec-18 22:43 44.572409 -119.451608 291 24208ft 362kts
06-Dec-18 22:44 44.610475 -119.581703 291 24207ft 362kts
06-Dec-18 22:45 44.648405 -119.712010 290 24211ft 362kts
06-Dec-18 22:46 44.679844 -119.844082 285 22888ft 358kts
06-Dec-18 22:47 44.709705 -119.976483 286 21384ft 349kts
06-Dec-18 22:48 44.739126 -120.105142 285 19886ft 345kts
06-Dec-18 22:49 44.768266 -120.232955 285 18388ft 343kts
06-Dec-18 22:50 44.796627 -120.357980 285 16886ft 332kts
06-Dec-18 22:51 44.824491 -120.481599 285 15381ft 330kts
06-Dec-18 22:52 44.851847 -120.603486 285 14101ft 329kts
06-Dec-18 22:53 44.875886 -120.711417 284 14106ft 322kts
06-Dec-18 22:54 44.901559 -120.827313 284 14135ft 320kts
06-Dec-18 22:55 44.928072 -120.947646 284 14164ft 326kts
06-Dec-18 22:56 44.954789 -121.069493 285 14191ft 321kts
06-Dec-18 22:58 44.980851 -121.189124 286 14201ft 319kts
06-Dec-18 22:59 45.006835 -121.309054 286 14201ft 322kts
06-Dec-18 23:00 45.033059 -121.430756 286 14201ft 324kts
06-Dec-18 23:01 45.059144 -121.552530 286 14200ft 325kts
06-Dec-18 23:02 45.083895 -121.668751 285 14201ft 325kts
06-Dec-18 23:03 45.102139 -121.754819 285 14155ft 326kts
06-Dec-18 23:04 45.127296 -121.874120 285 14068ft 324kts
06-Dec-18 23:05 45.152352 -121.993631 285 12584ft 310kts
06-Dec-18 23:06 45.175913 -122.106693 285 11124ft 311kts
06-Dec-18 23:07 45.198531 -122.223600 278 9637ft 308kts
06-Dec-18 23:08 45.209389 -122.338355 278 8132ft 258kts
06-Dec-18 23:09 45.217450 -122.429204 280 6643ft 228kts
06-Dec-18 23:10 45.225257 -122.517722 280 5141ft 226kts
06-Dec-18 23:11 45.231654 -122.605973 268 3651ft 228kts
06-Dec-18 23:12 45.227577 -122.689967 267 2187ft 201kts
06-Dec-18 23:13 45.221027 -122.753578 262 1523ft 103kts
06-Dec-18 23:14 45.234068 -122.772404 7 378ft 87kts
06-Dec-18 23:15 45.246959 -122.769371 94 200ft 10kts
06-Dec-18 23:16 45.247500 -122.768222 2 200ft 0kts
06-Dec-18 23:16 45.247500 -122.768222 2 200ft 0kts
06-Dec-18 23:18 45.247500 -122.768222 2 200ft 0kts

Navigation Log

Ident Type
Flight plan parsing failed, navigation log unavailable